EBAW

EBAW 220050Z AUTO 23015KT 9999 // OVC022/// 08/03 Q1022

TAF TAF EBAW 251700Z 2518/2606 11007KT CAVOK PROB30 TEMPO 2518/2520 VRB15G30KT 3500 SHRA TSRA

EHWO

EHWO 220055Z AUTO 22014G24KT 180V240 9999 BKN021 OVC024 08/04 Q1021 WHT

TAF EHWO 210944Z 2110/2122 22015KT 9999 SCT025 BECMG 2110/2112 22015G28KT

EBBL

EBBL 220055Z AUTO 22015KT 9999 BKN027/// 07/02 Q1023 BLU

TAF EBBL 211541Z 2119/2207 23010G20KT 9999 BKN030 BECMG 2121/2123 23010KT FEW025

Always consult the official METAR resources.